Time;durP1;ratioP1;P1;durP2;ratioP2;P2;SDS_P1;SDS_P2;PMS_P1;PMS_P2;Temp;Humidity;BMP_temperature;BMP_pressure;BME280_temperature;BME280_humidity;BME280_pressure;Samples;Min_cycle;Max_cycle;Signal;HPM_P1;HPM_P2
2021/08/24 00:00:51;;;;;;;8.82;7.72;;;;;;;13.06;100.00;93643.47;2106868;28;20469;-86
2021/08/24 00:01:53;;;;;;;9.35;7.85;;;;;;;12.99;100.00;93649.75;2098686;28;20048;-86
2021/08/24 00:02:55;;;;;;;8.57;7.70;;;;;;;13.00;100.00;93648.59;2115421;28;20434;-85
2021/08/24 00:03:56;;;;;;;10.25;8.13;;;;;;;12.94;100.00;93642.19;2115322;28;20050;-85
2021/08/24 00:04:57;;;;;;;9.35;7.57;;;;;;;12.94;100.00;93647.56;2107055;28;20024;-86
2021/08/24 00:05:58;;;;;;;10.63;7.82;;;;;;;12.89;100.00;93641.94;2124097;27;20486;-87
2021/08/24 00:06:59;;;;;;;9.18;8.27;;;;;;;13.00;100.00;93650.53;2115234;28;20051;-87
2021/08/24 00:08:00;;;;;;;10.10;7.97;;;;;;;12.99;100.00;93644.38;2098340;28;20128;-84
2021/08/24 00:09:02;;;;;;;9.05;8.18;;;;;;;13.03;100.00;93644.31;2098850;28;20476;-86
2021/08/24 00:10:06;;;;;;;10.07;7.75;;;;;;;12.92;100.00;93641.88;2107070;28;20024;-86
2021/08/24 00:11:10;;;;;;;10.10;7.18;;;;;;;12.92;100.00;93649.16;2113523;28;20184;-85
2021/08/24 00:12:11;;;;;;;8.73;7.68;;;;;;;12.91;100.00;93643.03;2098872;28;20020;-85
2021/08/24 00:13:13;;;;;;;9.77;8.23;;;;;;;12.93;100.00;93646.06;2098637;28;20389;-84
2021/08/24 00:14:14;;;;;;;8.32;7.45;;;;;;;12.93;100.00;93646.06;2107168;28;20029;-86
2021/08/24 00:15:16;;;;;;;8.75;7.85;;;;;;;12.96;100.00;93649.84;2106976;28;20024;-84
2021/08/24 00:16:17;;;;;;;10.88;7.68;;;;;;;12.90;100.00;93641.50;2093651;28;20113;-85
2021/08/24 00:17:18;;;;;;;10.50;7.38;;;;;;;12.87;100.00;93646.97;2107051;28;20519;-86
2021/08/24 00:18:19;;;;;;;8.20;7.03;;;;;;;12.82;100.00;93643.63;2106772;28;20020;-86
2021/08/24 00:19:20;;;;;;;8.90;7.50;;;;;;;12.87;100.00;93639.69;2115063;28;20058;-85
2021/08/24 00:20:22;;;;;;;8.88;7.05;;;;;;;12.79;100.00;93639.06;2107092;28;20031;-85
2021/08/24 00:21:24;;;;;;;10.65;8.10;;;;;;;12.75;100.00;93643.00;2106901;28;20043;-86
2021/08/24 00:22:25;;;;;;;8.55;7.70;;;;;;;12.85;100.00;93639.34;2103078;28;20016;-84
2021/08/24 00:23:28;;;;;;;8.48;7.57;;;;;;;12.83;100.00;93644.38;2115329;28;20024;-84
2021/08/24 00:24:29;;;;;;;9.40;8.07;;;;;;;12.87;100.00;93639.69;2098903;28;20090;-86
2021/08/24 00:25:30;;;;;;;9.35;7.38;;;;;;;12.86;100.00;93648.88;2090106;28;20079;-84
2021/08/24 00:26:31;;;;;;;11.55;7.75;;;;;;;12.82;100.00;93642.88;2107024;28;20107;-86
2021/08/24 00:27:32;;;;;;;8.18;7.38;;;;;;;12.76;100.00;93652.56;2120901;27;20033;-84
2021/08/24 00:28:33;;;;;;;12.30;7.55;;;;;;;12.78;100.00;93644.88;2106988;28;20024;-85
2021/08/24 00:29:34;;;;;;;9.57;7.70;;;;;;;12.75;100.00;93653.75;2098507;28;20040;-85
2021/08/24 00:30:38;;;;;;;8.38;6.60;;;;;;;12.78;100.00;93650.22;2115383;28;20024;-85
2021/08/24 00:31:39;;;;;;;8.60;7.20;;;;;;;12.76;100.00;93642.59;2123857;27;20407;-85
2021/08/24 00:32:40;;;;;;;8.48;7.57;;;;;;;12.72;100.00;93636.53;2115333;28;20054;-84
2021/08/24 00:33:41;;;;;;;17.08;7.47;;;;;;;12.69;100.00;93637.38;2114824;27;20030;-85
2021/08/24 00:34:42;;;;;;;8.73;7.05;;;;;;;12.71;100.00;93647.69;2106704;28;20023;-85
2021/08/24 00:35:43;;;;;;;10.73;7.55;;;;;;;12.70;100.00;93638.91;2098491;28;20028;-84
2021/08/24 00:36:44;;;;;;;8.70;7.20;;;;;;;12.69;100.00;93642.75;2090212;28;20127;-88
2021/08/24 00:37:46;;;;;;;7.72;7.00;;;;;;;12.68;100.00;93641.22;2091446;28;20029;-86
2021/08/24 00:38:48;;;;;;;8.75;7.20;;;;;;;12.69;100.00;93637.38;2098727;28;20025;-86
2021/08/24 00:39:49;;;;;;;9.88;6.95;;;;;;;12.68;100.00;93643.16;2098659;28;20551;-87
2021/08/24 00:40:56;;;;;;;8.23;6.07;;;;;;;12.69;100.00;93645.44;2102351;28;20020;-84
2021/08/24 00:41:57;;;;;;;7.38;6.28;;;;;;;12.58;100.00;93651.00;2125200;27;20027;-82
2021/08/24 00:42:58;;;;;;;6.95;6.25;;;;;;;12.57;100.00;93649.50;2117122;28;20020;-83
2021/08/24 00:43:59;;;;;;;7.55;6.85;;;;;;;12.57;100.00;93649.50;2110021;28;20016;-85
2021/08/24 00:45:00;;;;;;;10.38;6.78;;;;;;;12.50;100.00;93648.88;2110642;28;20040;-86
2021/08/24 00:46:21;;;;;;;7.40;6.55;;;;;;;12.57;100.00;93651.44;2110803;28;20295;-85
2021/08/24 00:47:26;;;;;;;6.63;5.95;;;;;;;12.48;100.00;93646.63;2104677;28;20083;-86
2021/08/24 00:48:32;;;;;;;8.48;6.45;;;;;;;12.46;100.00;93646.28;2112028;28;20024;-85
2021/08/24 00:49:34;;;;;;;6.60;6.00;;;;;;;12.39;100.00;93643.75;2109164;27;20111;-86
2021/08/24 00:50:41;;;;;;;7.25;6.53;;;;;;;12.32;100.00;93644.63;2102064;28;20025;-87
2021/08/24 00:51:49;;;;;;;6.82;6.00;;;;;;;12.28;100.00;93643.19;2109009;28;20028;-85
2021/08/24 00:52:50;;;;;;;8.77;6.20;;;;;;;12.26;100.00;93640.19;2116237;28;20016;-86
2021/08/24 00:53:51;;;;;;;8.20;6.68;;;;;;;12.26;100.00;93646.31;2099546;28;20526;-85
2021/08/24 00:54:54;;;;;;;7.25;6.22;;;;;;;12.26;100.00;93648.97;2091316;28;20565;-84
2021/08/24 00:55:58;;;;;;;7.07;6.35;;;;;;;12.28;100.00;93640.50;2100213;28;20115;-85
2021/08/24 00:57:07;;;;;;;6.75;6.07;;;;;;;12.25;100.00;93642.13;2107706;28;20043;-86
2021/08/24 00:58:12;;;;;;;8.52;5.72;;;;;;;12.21;100.00;93635.31;2117138;27;20492;-87
2021/08/24 00:59:13;;;;;;;6.30;5.70;;;;;;;12.19;100.00;93643.00;2108924;28;20089;-85
2021/08/24 01:00:14;;;;;;;6.30;5.70;;;;;;;12.08;100.00;93635.94;2103365;28;20016;-85
2021/08/24 01:01:15;;;;;;;7.35;6.25;;;;;;;12.03;100.00;93649.06;2114892;27;20051;-85
2021/08/24 01:02:21;;;;;;;7.43;6.30;;;;;;;12.08;100.00;93638.59;2099548;28;20381;-85
2021/08/24 01:03:26;;;;;;;8.13;6.60;;;;;;;12.07;100.00;93644.34;2111851;28;20287;-85
2021/08/24 01:04:29;;;;;;;9.25;6.43;;;;;;;12.03;100.00;93641.00;2108146;28;20408;-87
2021/08/24 01:05:31;;;;;;;7.55;5.93;;;;;;;11.95;100.00;93632.34;2107555;28;20473;-85
2021/08/24 01:06:43;;;;;;;7.43;6.05;;;;;;;11.89;100.00;93642.00;2098845;28;20115;-85
2021/08/24 01:07:54;;;;;;;7.40;6.65;;;;;;;11.95;100.00;93639.63;2115695;27;20061;-86
2021/08/24 01:09:18;;;;;;;8.77;6.15;;;;;;;11.86;100.00;93634.06;2108802;28;20046;-85
2021/08/24 01:10:26;;;;;;;8.70;6.03;;;;;;;11.80;100.00;93631.06;2108241;27;20065;-87
2021/08/24 01:11:40;;;;;;;8.50;6.05;;;;;;;11.82;100.00;93640.22;2104499;28;20515;-85
2021/08/24 01:13:03;;;;;;;8.27;6.65;;;;;;;11.76;100.00;93636.47;2111148;27;20052;-84
2021/08/24 01:14:32;;;;;;;8.05;5.78;;;;;;;11.73;100.00;93639.97;2103996;28;20047;-85
2021/08/24 01:16:00;;;;;;;7.22;5.75;;;;;;;11.71;100.00;93641.53;2112124;27;20530;-85
2021/08/24 01:17:13;;;;;;;5.68;4.93;;;;;;;11.71;100.00;93639.63;2115814;28;20031;-84
2021/08/24 01:18:28;;;;;;;5.57;5.05;;;;;;;11.65;100.00;93635.16;2100264;28;20028;-86
2021/08/24 01:19:48;;;;;;;6.72;5.78;;;;;;;11.60;100.00;93631.78;2102225;28;20029;-85
2021/08/24 01:21:18;;;;;;;6.18;5.57;;;;;;;11.52;100.00;93632.31;2101571;28;20111;-85
2021/08/24 01:22:24;;;;;;;5.72;5.22;;;;;;;11.57;100.00;93635.28;2106468;28;20015;-84
2021/08/24 01:23:33;;;;;;;7.90;5.97;;;;;;;11.55;100.00;93639.53;2107710;27;20082;-85
2021/08/24 01:24:45;;;;;;;6.28;5.68;;;;;;;11.43;100.00;93645.47;2122245;27;20042;-84
2021/08/24 01:25:56;;;;;;;7.03;6.05;;;;;;;11.44;100.00;93641.63;2107949;28;20031;-84
2021/08/24 01:27:10;;;;;;;5.78;5.28;;;;;;;11.36;100.00;93635.63;2099625;28;20022;-85
2021/08/24 01:28:29;;;;;;;6.40;5.70;;;;;;;11.30;100.00;93638.03;2093318;28;20032;-86
2021/08/24 01:29:48;;;;;;;7.57;5.13;;;;;;;11.30;100.00;93637.25;2112564;27;20040;-86
2021/08/24 01:31:23;;;;;;;6.63;5.53;;;;;;;11.22;100.00;93636.63;2106807;28;20365;-85
2021/08/24 01:33:16;;;;;;;8.05;5.72;;;;;;;11.17;100.00;93633.66;2102626;28;20126;-85
2021/08/24 01:35:06;;;;;;;6.00;5.40;;;;;;;11.12;100.00;93631.44;2103673;28;20504;-86
2021/08/24 01:36:19;;;;;;;6.30;4.78;;;;;;;11.15;100.00;93630.63;2085742;28;20048;-84
2021/08/24 01:37:58;;;;;;;6.90;5.25;;;;;;;11.17;100.00;93634.41;2082487;28;20321;-87
2021/08/24 01:39:06;;;;;;;7.13;5.70;;;;;;;11.13;100.00;93635.63;2108092;28;20532;-85
2021/08/24 01:40:36;;;;;;;6.60;5.78;;;;;;;11.12;100.00;93639.47;2098926;28;20039;-85
2021/08/24 01:41:59;;;;;;;7.05;5.70;;;;;;;11.10;100.00;93635.25;2101868;28;20016;-86
2021/08/24 01:43:05;;;;;;;7.30;5.35;;;;;;;11.02;100.00;93636.56;2100868;28;20077;-85
2021/08/24 01:44:18;;;;;;;6.28;5.55;;;;;;;11.01;100.00;93636.94;2104755;28;20027;-87
2021/08/24 01:45:28;;;;;;;5.72;5.20;;;;;;;10.93;100.00;93633.63;2101166;28;20016;-85
2021/08/24 01:47:01;;;;;;;6.40;5.80;;;;;;;10.93;100.00;93632.84;2093000;28;20028;-85
2021/08/24 01:48:16;;;;;;;6.35;5.70;;;;;;;10.94;100.00;93632.47;2110286;28;20027;-84
2021/08/24 01:49:29;;;;;;;6.63;5.63;;;;;;;10.97;100.00;93628.97;2108193;28;20048;-85
2021/08/24 01:50:46;;;;;;;8.45;6.03;;;;;;;10.95;100.00;93639.31;2115363;28;20027;-86
2021/08/24 01:51:51;;;;;;;6.78;5.68;;;;;;;10.95;100.00;93633.97;2103131;28;20031;-84
2021/08/24 01:53:14;;;;;;;7.70;6.03;;;;;;;10.91;100.00;93633.25;2107492;27;20016;-86
2021/08/24 01:54:21;;;;;;;8.32;5.88;;;;;;;10.86;100.00;93630.31;2117792;27;20027;-85
2021/08/24 01:55:30;;;;;;;5.95;5.35;;;;;;;10.85;100.00;93632.22;2114892;28;20027;-85
2021/08/24 01:56:37;;;;;;;7.40;6.65;;;;;;;10.87;100.00;93629.88;2111476;28;20050;-85
2021/08/24 01:57:50;;;;;;;6.75;6.03;;;;;;;10.82;100.00;93630.34;2115501;27;20109;-86
2021/08/24 01:59:06;;;;;;;7.90;5.45;;;;;;;10.89;100.00;93624.13;2107715;28;20473;-85
2021/08/24 02:00:13;;;;;;;7.53;5.85;;;;;;;10.87;100.00;93626.47;2110197;28;20027;-86
2021/08/24 02:01:19;;;;;;;6.30;5.70;;;;;;;10.89;100.00;93626.78;2114250;28;20016;-86
2021/08/24 02:02:30;;;;;;;6.63;5.47;;;;;;;10.87;100.00;93626.47;2106917;28;20109;-86
2021/08/24 02:03:38;;;;;;;6.55;5.78;;;;;;;10.79;100.00;93628.47;2107375;28;20099;-85
2021/08/24 02:04:54;;;;;;;6.82;5.47;;;;;;;10.89;100.00;93632.94;2105155;28;20020;-86
2021/08/24 02:07:04;;;;;;;;;;;;;;;10.76;100.00;93629.31;2138101;27;20189;-86
2021/08/24 02:08:10;;;;;;;6.03;4.78;;;;;;;10.83;100.00;93626.50;2118126;28;19922;-84
2021/08/24 02:09:23;;;;;;;6.30;5.32;;;;;;;10.79;100.00;93625.78;2101515;28;20024;-86
2021/08/24 02:10:26;;;;;;;5.20;4.70;;;;;;;10.63;100.00;93628.34;2107796;27;20028;-87
2021/08/24 02:11:31;;;;;;;7.88;5.35;;;;;;;10.71;100.00;93624.38;2111901;28;20019;-89
2021/08/24 02:12:35;;;;;;;6.32;5.57;;;;;;;10.51;100.00;93624.28;2112871;28;20484;-85
2021/08/24 02:13:41;;;;;;;7.13;6.05;;;;;;;10.62;100.00;93630.22;2104691;28;20111;-84
2021/08/24 02:14:42;;;;;;;7.55;5.43;;;;;;;10.61;100.00;93626.03;2114015;27;20026;-84
2021/08/24 02:15:48;;;;;;;15.00;6.18;;;;;;;10.53;100.00;93633.41;2112427;28;20020;-87
2021/08/24 02:16:51;;;;;;;7.00;5.63;;;;;;;10.50;100.00;93634.22;2104772;28;20027;-85
2021/08/24 02:17:52;;;;;;;7.55;6.15;;;;;;;10.42;100.00;93624.03;2104629;28;20023;-88
2021/08/24 02:18:58;;;;;;;5.70;5.20;;;;;;;10.45;100.00;93633.91;2104264;27;20052;-85
2021/08/24 02:20:12;;;;;;;7.00;5.80;;;;;;;10.46;100.00;93627.41;2113094;28;20039;-85
2021/08/24 02:21:19;;;;;;;6.25;5.47;;;;;;;10.49;100.00;93627.38;2107868;28;20113;-87
2021/08/24 02:22:28;;;;;;;6.88;5.55;;;;;;;10.55;100.00;93630.34;2104443;28;20028;-87
2021/08/24 02:23:32;;;;;;;6.65;5.00;;;;;;;10.43;100.00;93618.28;2101409;28;20042;-89
2021/08/24 02:24:57;;;;;;;7.28;5.18;;;;;;;10.47;100.00;93621.66;2104349;28;20551;-88
2021/08/24 02:26:02;;;;;;;5.57;4.95;;;;;;;10.47;100.00;93623.56;2104592;28;20031;-84
2021/08/24 02:27:09;;;;;;;7.32;5.78;;;;;;;10.46;100.00;93630.09;2108780;28;20032;-83
2021/08/24 02:28:22;;;;;;;7.68;5.03;;;;;;;10.42;100.00;93630.13;2104006;28;20623;-86
2021/08/24 02:29:23;;;;;;;7.28;4.68;;;;;;;10.38;100.00;93632.09;2097195;28;20033;-89
2021/08/24 02:30:24;;;;;;;6.05;4.70;;;;;;;10.34;100.00;93629.44;2104020;28;20029;-83
2021/08/24 02:31:31;;;;;;;10.02;4.55;;;;;;;10.40;100.00;93631.66;2095689;28;20047;-86
2021/08/24 02:32:36;;;;;;;6.05;5.05;;;;;;;10.38;100.00;93634.00;2096980;28;20135;-83
2021/08/24 02:33:44;;;;;;;5.70;4.68;;;;;;;10.37;100.00;93633.25;2096099;28;20037;-88
2021/08/24 02:35:13;;;;;;;6.10;5.40;;;;;;;10.26;100.00;93633.34;2104499;28;20115;-88
2021/08/24 02:36:15;;;;;;;8.70;4.93;;;;;;;10.25;100.00;93637.19;2090533;28;20122;-86
2021/08/24 02:37:36;;;;;;;7.30;5.00;;;;;;;10.25;100.00;93637.19;2095547;28;20032;-86
2021/08/24 02:38:43;;;;;;;5.88;5.07;;;;;;;10.25;100.00;93631.84;2101151;28;20021;-86
2021/08/24 02:39:59;;;;;;;7.53;5.20;;;;;;;10.28;100.00;93633.72;2104067;28;20028;-90
2021/08/24 02:41:39;;;;;;;5.32;4.53;;;;;;;10.19;100.00;93633.44;2102807;28;20507;-87
2021/08/24 02:42:47;;;;;;;5.35;4.85;;;;;;;10.29;100.00;93637.91;2101946;28;20040;-88
2021/08/24 02:44:12;;;;;;;5.88;4.60;;;;;;;10.22;100.00;93631.88;2104581;28;20074;-86
2021/08/24 02:45:30;;;;;;;9.32;5.22;;;;;;;10.19;100.00;93632.69;2117074;27;20091;-85
2021/08/24 02:46:35;;;;;;;6.20;4.50;;;;;;;10.12;100.00;93633.50;2120687;28;20031;-87
2021/08/24 02:47:37;;;;;;;7.97;4.80;;;;;;;9.99;100.00;93633.28;2104288;28;20059;-86
2021/08/24 02:48:42;;;;;;;6.60;4.38;;;;;;;9.94;100.00;93632.97;2095608;28;20037;-87
2021/08/24 02:49:43;;;;;;;4.72;4.30;;;;;;;9.90;100.00;93635.66;2096557;28;20147;-85
2021/08/24 02:50:44;;;;;;;4.78;4.13;;;;;;;9.93;100.00;93634.88;2095301;28;20126;-88
2021/08/24 02:51:48;;;;;;;7.78;5.10;;;;;;;9.90;100.00;93642.91;2094927;28;20017;-86
2021/08/24 02:52:50;;;;;;;5.40;4.75;;;;;;;9.87;100.00;93641.78;2096241;28;20029;-88
2021/08/24 02:54:22;;;;;;;5.18;4.38;;;;;;;9.89;100.00;93636.06;2103720;28;20047;-87
2021/08/24 02:55:23;;;;;;;5.20;4.43;;;;;;;9.87;100.00;93641.78;2108235;28;20484;-87
2021/08/24 02:56:23;;;;;;;5.25;4.72;;;;;;;9.86;100.00;93636.84;2107900;28;20028;-85
2021/08/24 02:57:24;;;;;;;4.80;4.28;;;;;;;9.91;100.00;93636.41;2103265;28;20031;-85
2021/08/24 02:58:25;;;;;;;5.35;4.47;;;;;;;9.88;100.00;93640.66;2103496;28;20444;-84
2021/08/24 02:59:28;;;;;;;6.13;4.60;;;;;;;9.90;100.00;93641.00;2095098;28;20314;-85
2021/08/24 03:00:29;;;;;;;6.55;4.95;;;;;;;9.89;100.00;93639.50;2095752;28;20037;-87
2021/08/24 03:01:30;;;;;;;5.63;4.90;;;;;;;9.86;100.00;93636.84;2103964;28;20059;-87
2021/08/24 03:02:32;;;;;;;5.97;4.95;;;;;;;9.82;100.00;93634.22;2106894;28;20024;-88
2021/08/24 03:03:33;;;;;;;5.90;4.57;;;;;;;9.84;100.00;93635.34;2104928;28;20024;-87
2021/08/24 03:04:34;;;;;;;5.55;4.95;;;;;;;9.89;100.00;93634.16;2103296;28;20028;-86
2021/08/24 03:05:35;;;;;;;6.35;5.38;;;;;;;9.90;100.00;93630.31;2095447;28;20052;-89
2021/08/24 03:06:42;;;;;;;9.77;5.20;;;;;;;9.84;100.00;93632.69;2111840;28;20124;-88
2021/08/24 03:07:43;;;;;;;7.28;5.00;;;;;;;9.85;100.00;93630.75;2104228;28;20028;-88
2021/08/24 03:08:46;;;;;;;7.18;5.20;;;;;;;9.80;100.00;93633.88;2102785;28;20016;-88
2021/08/24 03:09:47;;;;;;;7.13;5.07;;;;;;;9.79;100.00;93643.78;2104135;28;20104;-86
2021/08/24 03:10:49;;;;;;;9.88;5.07;;;;;;;9.86;100.00;93634.19;2111923;28;20015;-87
2021/08/24 03:12:04;;;;;;;5.72;4.68;;;;;;;9.81;100.00;93628.13;2095463;28;20025;-85
2021/08/24 03:13:08;;;;;;;8.10;4.65;;;;;;;9.83;100.00;93635.72;2097045;28;20116;-85
2021/08/24 03:14:21;;;;;;;5.35;4.40;;;;;;;9.78;100.00;93633.50;2095256;28;20558;-86
2021/08/24 03:15:28;;;;;;;5.47;4.57;;;;;;;9.73;100.00;93633.94;2098441;28;20029;-89
2021/08/24 03:16:38;;;;;;;5.10;4.60;;;;;;;9.72;100.00;93637.75;2096686;28;20115;-88
2021/08/24 03:17:48;;;;;;;4.97;4.47;;;;;;;9.65;100.00;93633.25;2096710;28;20112;-87
2021/08/24 03:18:57;;;;;;;5.25;4.75;;;;;;;9.72;100.00;93632.44;2091989;28;20032;-86
2021/08/24 03:20:02;;;;;;;7.00;4.88;;;;;;;9.70;100.00;93635.50;2103419;28;20024;-87
2021/08/24 03:21:08;;;;;;;5.38;4.47;;;;;;;9.70;100.00;93629.38;2106997;28;20028;-86
2021/08/24 03:22:11;;;;;;;8.85;4.65;;;;;;;9.67;100.00;93632.88;2098664;28;20021;-87
2021/08/24 03:23:16;;;;;;;5.85;4.40;;;;;;;9.56;100.00;93635.63;2090251;28;20041;-87
2021/08/24 03:24:18;;;;;;;5.93;4.28;;;;;;;9.59;100.00;93632.16;2098795;28;20031;-87
2021/08/24 03:25:20;;;;;;;5.13;4.60;;;;;;;9.54;100.00;93636.03;2097818;28;20106;-87
2021/08/24 03:26:35;;;;;;;6.25;5.10;;;;;;;9.58;100.00;93639.41;2097630;28;20105;-86
2021/08/24 03:27:38;;;;;;;6.40;4.47;;;;;;;9.59;100.00;93632.16;2098044;28;20020;-84
2021/08/24 03:28:41;;;;;;;9.60;4.85;;;;;;;9.53;100.00;93631.09;2086149;28;20056;-88
2021/08/24 03:29:59;;;;;;;7.60;4.38;;;;;;;9.77;100.00;93632.75;2089954;28;20041;-88
2021/08/24 03:31:00;;;;;;;5.97;5.28;;;;;;;9.84;100.00;93637.25;2104201;28;20028;-84
2021/08/24 03:32:04;;;;;;;5.57;4.93;;;;;;;9.84;100.00;93634.59;2097624;28;20028;-85
2021/08/24 03:33:05;;;;;;;7.00;5.32;;;;;;;9.84;100.00;93640.69;2098249;28;20021;-86
2021/08/24 03:34:07;;;;;;;6.68;4.75;;;;;;;9.88;100.00;93639.88;2089547;28;20051;-88
2021/08/24 03:35:09;;;;;;;6.30;4.25;;;;;;;9.90;100.00;93637.56;2089640;28;20066;-89
2021/08/24 03:36:10;;;;;;;5.18;4.72;;;;;;;9.97;100.00;93638.25;2098215;28;20058;-86
2021/08/24 03:37:11;;;;;;;7.32;4.70;;;;;;;9.93;100.00;93632.19;2097378;28;20025;-87
2021/08/24 03:38:12;;;;;;;7.57;5.13;;;;;;;10.04;100.00;93642.75;2089463;28;20027;-87
2021/08/24 03:39:13;;;;;;;5.40;4.90;;;;;;;10.09;100.00;93631.63;2097876;28;20400;-86
2021/08/24 03:40:15;;;;;;;7.70;5.10;;;;;;;10.12;100.00;93640.78;2093284;28;20387;-88
2021/08/24 03:41:16;;;;;;;5.88;5.18;;;;;;;10.13;100.00;93636.94;2084588;28;20021;-86
2021/08/24 03:42:17;;;;;;;8.27;5.15;;;;;;;10.08;100.00;93636.22;2095235;28;20020;-86
2021/08/24 03:43:18;;;;;;;6.35;5.35;;;;;;;10.16;100.00;93638.81;2096601;28;20417;-88
2021/08/24 03:44:19;;;;;;;5.82;5.32;;;;;;;10.13;100.00;93644.94;2097779;28;20115;-88
2021/08/24 03:45:20;;;;;;;6.00;5.13;;;;;;;10.16;100.00;93642.25;2089459;28;20413;-87
2021/08/24 03:46:21;;;;;;;7.28;5.70;;;;;;;10.23;100.00;93644.09;2089798;28;20040;-84
2021/08/24 03:47:22;;;;;;;7.47;6.47;;;;;;;10.25;100.00;93639.88;2106073;28;20500;-84
2021/08/24 03:48:23;;;;;;;6.53;5.57;;;;;;;10.28;100.00;93644.41;2097399;28;20052;-87
2021/08/24 03:49:24;;;;;;;6.35;5.75;;;;;;;10.23;100.00;93642.16;2093616;28;20489;-88
2021/08/24 03:50:25;;;;;;;8.25;6.00;;;;;;;10.25;100.00;93652.47;2110372;28;20034;-85
2021/08/24 03:51:26;;;;;;;7.95;6.25;;;;;;;10.24;100.00;93648.25;2106048;28;20032;-86
2021/08/24 03:52:27;;;;;;;7.28;6.00;;;;;;;10.28;100.00;93652.44;2089524;28;20029;-89
2021/08/24 03:53:28;;;;;;;8.57;6.63;;;;;;;10.30;100.00;93650.09;2097628;28;20505;-88
2021/08/24 03:54:29;;;;;;;7.28;6.55;;;;;;;10.30;100.00;93646.69;2097015;28;20303;-86
2021/08/24 03:55:30;;;;;;;6.90;6.28;;;;;;;10.29;100.00;93648.59;2097641;28;20028;-86
2021/08/24 03:56:31;;;;;;;9.20;6.72;;;;;;;10.29;100.00;93645.94;2106038;28;20048;-88
2021/08/24 03:57:32;;;;;;;6.43;5.82;;;;;;;10.29;100.00;93650.53;2105998;28;20053;-83
2021/08/24 03:58:34;;;;;;;6.45;5.82;;;;;;;10.32;100.00;93649.72;2106008;28;20020;-85
2021/08/24 03:59:35;;;;;;;7.93;6.45;;;;;;;10.36;100.00;93650.44;2097568;28;20025;-86
2021/08/24 04:00:36;;;;;;;9.77;6.53;;;;;;;10.32;100.00;93647.06;2097182;28;20542;-88
2021/08/24 04:01:37;;;;;;;6.95;6.25;;;;;;;10.34;100.00;93650.81;2097615;28;20020;-89
2021/08/24 04:02:39;;;;;;;8.75;6.38;;;;;;;10.32;100.00;93647.81;2096156;28;20248;-86
2021/08/24 04:03:40;;;;;;;7.72;6.03;;;;;;;10.35;100.00;93654.25;2087450;28;20646;-89
2021/08/24 04:04:41;;;;;;;7.38;6.22;;;;;;;10.33;100.00;93656.56;2089592;28;20039;-83
2021/08/24 04:05:42;;;;;;;9.00;7.30;;;;;;;10.37;100.00;93657.28;2088668;28;20060;-85
2021/08/24 04:06:43;;;;;;;8.85;5.80;;;;;;;10.44;100.00;93653.75;2097300;28;20589;-86
2021/08/24 04:07:46;;;;;;;9.48;6.43;;;;;;;10.37;100.00;93656.53;2088349;28;20037;-85
2021/08/24 04:08:47;;;;;;;11.32;6.10;;;;;;;10.38;100.00;93655.38;2089537;28;20036;-87
2021/08/24 04:09:51;;;;;;;7.03;6.20;;;;;;;10.38;100.00;93660.72;2084144;28;20045;-87
2021/08/24 04:10:52;;;;;;;8.40;6.10;;;;;;;10.40;100.00;93661.81;2093921;28;20048;-85
2021/08/24 04:11:53;;;;;;;7.03;6.25;;;;;;;10.34;100.00;93660.75;2089007;28;20059;-85
2021/08/24 04:12:54;;;;;;;8.88;6.32;;;;;;;10.34;100.00;93660.75;2085129;28;20501;-86
2021/08/24 04:13:55;;;;;;;10.27;6.55;;;;;;;10.33;100.00;93669.94;2097414;28;20074;-89
2021/08/24 04:14:56;;;;;;;7.13;6.20;;;;;;;10.35;100.00;93656.91;2089058;28;20083;-88
2021/08/24 04:15:59;;;;;;;10.50;6.18;;;;;;;10.37;100.00;93661.88;2093172;28;20119;-85
2021/08/24 04:17:00;;;;;;;8.73;6.90;;;;;;;10.28;100.00;93654.34;2089784;28;20020;-85
2021/08/24 04:18:01;;;;;;;7.05;6.18;;;;;;;10.38;100.00;93655.38;2088955;28;20057;-83
2021/08/24 04:19:02;;;;;;;6.35;5.72;;;;;;;10.39;100.00;93668.31;2089192;28;20478;-86
2021/08/24 04:20:05;;;;;;;7.18;6.47;;;;;;;10.43;100.00;93657.59;2089011;28;20048;-88
2021/08/24 04:21:11;;;;;;;7.60;6.45;;;;;;;10.46;100.00;93659.47;2089799;28;20113;-88
2021/08/24 04:22:18;;;;;;;7.85;5.97;;;;;;;10.47;100.00;93663.66;2098987;28;20123;-86
2021/08/24 04:23:21;;;;;;;7.28;6.50;;;;;;;10.44;100.00;93661.78;2097816;28;20093;-87
2021/08/24 04:24:22;;;;;;;6.38;5.72;;;;;;;10.32;100.00;93663.09;2089767;28;20039;-87
2021/08/24 04:25:23;;;;;;;6.15;5.50;;;;;;;10.34;100.00;93658.09;2097267;28;20039;-87
2021/08/24 04:26:26;;;;;;;7.90;6.38;;;;;;;10.41;100.00;93655.34;2105590;28;20028;-88
2021/08/24 04:27:27;;;;;;;5.97;5.45;;;;;;;10.30;100.00;93655.44;2097450;28;20086;-87
2021/08/24 04:28:28;;;;;;;6.65;5.95;;;;;;;10.35;100.00;93656.91;2088762;28;20108;-86
2021/08/24 04:29:30;;;;;;;7.07;6.22;;;;;;;10.33;100.00;93664.59;2088702;28;20039;-86
2021/08/24 04:30:31;;;;;;;6.53;5.82;;;;;;;10.26;100.00;93662.75;2088449;28;20025;-88
2021/08/24 04:31:36;;;;;;;9.65;6.28;;;;;;;10.24;100.00;93659.72;2097400;28;20040;-88
2021/08/24 04:32:40;;;;;;;9.00;5.65;;;;;;;10.26;100.00;93662.00;2090304;28;20078;-87
2021/08/24 04:33:42;;;;;;;6.60;5.60;;;;;;;10.28;100.00;93665.03;2098372;28;20066;-86
2021/08/24 04:34:43;;;;;;;9.02;5.45;;;;;;;10.26;100.00;93664.66;2097071;28;20477;-89
2021/08/24 04:35:44;;;;;;;6.70;5.18;;;;;;;10.28;100.00;93663.13;2088973;28;20025;-84
2021/08/24 04:36:45;;;;;;;7.72;5.03;;;;;;;10.27;100.00;93664.28;2097343;28;20044;-86
2021/08/24 04:37:46;;;;;;;5.80;5.20;;;;;;;10.27;100.00;93666.19;2105301;28;20481;-87
2021/08/24 04:38:47;;;;;;;7.05;5.68;;;;;;;10.30;100.00;93663.47;2097343;28;20455;-87
2021/08/24 04:39:48;;;;;;;9.07;5.43;;;;;;;10.27;100.00;93663.50;2088844;28;20029;-86
2021/08/24 04:40:50;;;;;;;7.25;5.30;;;;;;;10.34;100.00;93653.50;2088441;28;20171;-85
2021/08/24 04:41:51;;;;;;;8.32;5.70;;;;;;;10.27;100.00;93653.59;2089310;28;20050;-86
2021/08/24 04:42:51;;;;;;;6.20;5.38;;;;;;;10.38;100.00;93658.06;2088899;28;20059;-90
2021/08/24 04:43:53;;;;;;;8.55;5.85;;;;;;;10.32;100.00;93660.41;2093235;28;20066;-86
2021/08/24 04:44:56;;;;;;;6.22;5.63;;;;;;;10.27;100.00;93658.16;2097450;28;20028;-87
2021/08/24 04:45:57;;;;;;;6.47;5.45;;;;;;;10.30;100.00;93660.03;2085128;28;20473;-84
2021/08/24 04:46:58;;;;;;;9.98;5.93;;;;;;;10.36;100.00;93657.69;2088926;28;20025;-89
2021/08/24 04:47:59;;;;;;;6.93;5.65;;;;;;;10.29;100.00;93655.88;2097061;28;20103;-86
2021/08/24 04:49:00;;;;;;;10.75;5.60;;;;;;;10.20;100.00;93656.31;2105614;28;20028;-88
2021/08/24 04:50:01;;;;;;;6.13;5.47;;;;;;;10.40;100.00;93653.03;2105561;28;20443;-88
2021/08/24 04:51:02;;;;;;;5.50;5.00;;;;;;;10.38;100.00;93648.13;2105296;28;20396;-86
2021/08/24 04:52:03;;;;;;;6.07;5.05;;;;;;;10.42;100.00;93654.19;2088529;28;20067;-86
2021/08/24 04:53:04;;;;;;;7.05;5.72;;;;;;;10.29;100.00;93653.19;2097250;28;20021;-88
2021/08/24 04:54:05;;;;;;;6.63;5.43;;;;;;;10.31;100.00;93651.63;2105601;28;20111;-85
2021/08/24 04:55:07;;;;;;;9.70;5.60;;;;;;;10.24;100.00;93654.38;2104134;28;20101;-88
2021/08/24 04:56:08;;;;;;;6.43;5.05;;;;;;;10.29;100.00;93661.22;2102885;28;20028;-87
2021/08/24 04:57:09;;;;;;;6.45;5.43;;;;;;;10.38;100.00;93652.69;2092744;28;20025;-87
2021/08/24 04:58:10;;;;;;;7.32;4.90;;;;;;;10.33;100.00;93653.91;2099221;28;20112;-87
2021/08/24 04:59:11;;;;;;;5.65;4.95;;;;;;;10.30;100.00;93655.44;2105557;28;20389;-88
2021/08/24 05:00:13;;;;;;;6.45;5.10;;;;;;;10.29;100.00;93653.19;2097112;28;20028;-86
2021/08/24 05:01:14;;;;;;;10.38;6.10;;;;;;;10.31;100.00;93654.28;2097312;28;20424;-85
2021/08/24 05:02:15;;;;;;;6.88;5.00;;;;;;;10.31;100.00;93654.28;2113977;28;20103;-87
2021/08/24 05:03:16;;;;;;;6.20;5.22;;;;;;;10.37;100.00;93657.28;2096743;28;20039;-89
2021/08/24 05:04:17;;;;;;;6.25;5.35;;;;;;;10.44;100.00;93654.53;2089055;28;20111;-86
2021/08/24 05:05:18;;;;;;;7.30;5.25;;;;;;;10.42;100.00;93659.53;2096934;28;20028;-85
2021/08/24 05:06:19;;;;;;;6.25;5.30;;;;;;;10.32;100.00;93663.84;2096478;28;20040;-90
2021/08/24 05:07:20;;;;;;;6.35;4.95;;;;;;;10.38;100.00;93661.47;2089035;28;20068;-86
2021/08/24 05:08:22;;;;;;;7.53;5.00;;;;;;;10.34;100.00;93658.84;2096969;28;20029;-89